sensor_id;sensor_type;location;lat;lon;timestamp;temperature;humidity
8856;DHT22;4464;50.882;4.730;2023-04-28T00:01:09;11.40;99.90
8856;DHT22;4464;50.882;4.730;2023-04-28T00:03:35;11.30;99.90
8856;DHT22;4464;50.882;4.730;2023-04-28T00:06:02;11.30;99.90
8856;DHT22;4464;50.882;4.730;2023-04-28T00:08:31;11.20;99.90
8856;DHT22;4464;50.882;4.730;2023-04-28T00:10:59;11.20;99.90
8856;DHT22;4464;50.882;4.730;2023-04-28T00:13:25;11.20;99.90
8856;DHT22;4464;50.882;4.730;2023-04-28T00:15:51;11.10;99.90
8856;DHT22;4464;50.882;4.730;2023-04-28T00:18:18;11.00;99.90
8856;DHT22;4464;50.882;4.730;2023-04-28T00:20:44;10.90;99.90
8856;DHT22;4464;50.882;4.730;2023-04-28T00:23:09;10.80;99.90
8856;DHT22;4464;50.882;4.730;2023-04-28T00:25:35;10.70;99.90
8856;DHT22;4464;50.882;4.730;2023-04-28T00:28:05;10.60;99.90
8856;DHT22;4464;50.882;4.730;2023-04-28T00:30:31;10.60;99.90
8856;DHT22;4464;50.882;4.730;2023-04-28T00:32:57;10.50;99.90
8856;DHT22;4464;50.882;4.730;2023-04-28T00:35:25;10.40;99.90
8856;DHT22;4464;50.882;4.730;2023-04-28T00:37:55;10.40;99.90
8856;DHT22;4464;50.882;4.730;2023-04-28T00:40:21;10.30;99.90
8856;DHT22;4464;50.882;4.730;2023-04-28T00:42:47;10.30;99.90
8856;DHT22;4464;50.882;4.730;2023-04-28T00:45:15;10.30;99.90
8856;DHT22;4464;50.882;4.730;2023-04-28T00:47:45;10.30;99.90
8856;DHT22;4464;50.882;4.730;2023-04-28T00:50:10;10.30;99.90
8856;DHT22;4464;50.882;4.730;2023-04-28T00:52:37;10.20;99.90
8856;DHT22;4464;50.882;4.730;2023-04-28T00:55:04;10.20;99.90
8856;DHT22;4464;50.882;4.730;2023-04-28T00:57:30;10.20;99.90
8856;DHT22;4464;50.882;4.730;2023-04-28T00:59:56;10.30;99.90
8856;DHT22;4464;50.882;4.730;2023-04-28T01:02:25;10.30;99.90
8856;DHT22;4464;50.882;4.730;2023-04-28T01:04:51;10.30;99.90
8856;DHT22;4464;50.882;4.730;2023-04-28T01:07:18;10.40;99.90
8856;DHT22;4464;50.882;4.730;2023-04-28T01:09:44;10.40;99.90
8856;DHT22;4464;50.882;4.730;2023-04-28T01:12:12;10.30;99.90
8856;DHT22;4464;50.882;4.730;2023-04-28T01:14:40;10.30;99.90
8856;DHT22;4464;50.882;4.730;2023-04-28T01:17:07;10.30;99.90
8856;DHT22;4464;50.882;4.730;2023-04-28T01:19:33;10.10;99.90
8856;DHT22;4464;50.882;4.730;2023-04-28T01:21:58;10.00;99.90
8856;DHT22;4464;50.882;4.730;2023-04-28T01:24:24;10.10;99.90
8856;DHT22;4464;50.882;4.730;2023-04-28T01:26:50;10.10;99.90
8856;DHT22;4464;50.882;4.730;2023-04-28T01:29:16;10.10;99.90
8856;DHT22;4464;50.882;4.730;2023-04-28T01:31:46;10.20;99.90
8856;DHT22;4464;50.882;4.730;2023-04-28T01:34:12;10.20;99.90
8856;DHT22;4464;50.882;4.730;2023-04-28T01:36:39;10.30;99.90
8856;DHT22;4464;50.882;4.730;2023-04-28T01:39:05;10.40;99.90
8856;DHT22;4464;50.882;4.730;2023-04-28T01:41:33;10.40;99.90
8856;DHT22;4464;50.882;4.730;2023-04-28T01:43:59;10.40;99.90
8856;DHT22;4464;50.882;4.730;2023-04-28T01:46:27;10.30;99.90
8856;DHT22;4464;50.882;4.730;2023-04-28T01:48:55;10.30;99.90
8856;DHT22;4464;50.882;4.730;2023-04-28T01:51:21;10.30;99.90
8856;DHT22;4464;50.882;4.730;2023-04-28T01:53:46;10.10;99.90
8856;DHT22;4464;50.882;4.730;2023-04-28T01:56:12;10.10;99.90
8856;DHT22;4464;50.882;4.730;2023-04-28T01:58:38;10.20;99.90
8856;DHT22;4464;50.882;4.730;2023-04-28T02:01:06;10.20;99.90
8856;DHT22;4464;50.882;4.730;2023-04-28T02:03:31;10.20;99.90
8856;DHT22;4464;50.882;4.730;2023-04-28T02:05:59;10.30;99.90
8856;DHT22;4464;50.882;4.730;2023-04-28T02:08:25;10.30;99.90
8856;DHT22;4464;50.882;4.730;2023-04-28T02:10:50;10.30;99.90
8856;DHT22;4464;50.882;4.730;2023-04-28T02:13:19;10.30;99.90
8856;DHT22;4464;50.882;4.730;2023-04-28T02:15:44;10.30;99.90
8856;DHT22;4464;50.882;4.730;2023-04-28T02:18:10;10.30;99.90
8856;DHT22;4464;50.882;4.730;2023-04-28T02:20:38;10.30;99.90
8856;DHT22;4464;50.882;4.730;2023-04-28T02:23:04;10.20;99.90
8856;DHT22;4464;50.882;4.730;2023-04-28T02:25:29;10.30;99.90
8856;DHT22;4464;50.882;4.730;2023-04-28T02:27:55;10.20;99.90
8856;DHT22;4464;50.882;4.730;2023-04-28T02:30:21;10.20;99.90
8856;DHT22;4464;50.882;4.730;2023-04-28T02:32:47;10.10;99.90
8856;DHT22;4464;50.882;4.730;2023-04-28T02:35:15;10.10;99.90
8856;DHT22;4464;50.882;4.730;2023-04-28T02:37:41;10.00;99.90
8856;DHT22;4464;50.882;4.730;2023-04-28T02:40:07;10.10;99.90
8856;DHT22;4464;50.882;4.730;2023-04-28T02:42:38;10.10;99.90
8856;DHT22;4464;50.882;4.730;2023-04-28T02:45:04;10.00;99.90
8856;DHT22;4464;50.882;4.730;2023-04-28T02:47:30;10.00;99.90
8856;DHT22;4464;50.882;4.730;2023-04-28T02:49:55;9.90;99.90
8856;DHT22;4464;50.882;4.730;2023-04-28T02:52:21;9.80;99.90
8856;DHT22;4464;50.882;4.730;2023-04-28T02:54:47;9.90;99.90
8856;DHT22;4464;50.882;4.730;2023-04-28T02:57:13;9.90;99.90
8856;DHT22;4464;50.882;4.730;2023-04-28T02:59:39;10.10;99.90
8856;DHT22;4464;50.882;4.730;2023-04-28T03:02:05;10.20;99.90
8856;DHT22;4464;50.882;4.730;2023-04-28T03:04:31;10.20;99.90
8856;DHT22;4464;50.882;4.730;2023-04-28T03:06:56;10.10;99.90
8856;DHT22;4464;50.882;4.730;2023-04-28T03:09:22;10.00;99.90
8856;DHT22;4464;50.882;4.730;2023-04-28T03:11:50;10.20;99.90
8856;DHT22;4464;50.882;4.730;2023-04-28T03:14:16;10.20;99.90
8856;DHT22;4464;50.882;4.730;2023-04-28T03:16:44;10.20;99.90
8856;DHT22;4464;50.882;4.730;2023-04-28T03:19:09;10.20;99.90
8856;DHT22;4464;50.882;4.730;2023-04-28T03:21:35;10.30;99.90
8856;DHT22;4464;50.882;4.730;2023-04-28T03:24:01;10.30;99.90
8856;DHT22;4464;50.882;4.730;2023-04-28T03:26:29;10.30;99.90
8856;DHT22;4464;50.882;4.730;2023-04-28T03:28:55;10.20;99.90
8856;DHT22;4464;50.882;4.730;2023-04-28T03:31:21;10.20;99.90
8856;DHT22;4464;50.882;4.730;2023-04-28T03:33:47;10.30;99.90
8856;DHT22;4464;50.882;4.730;2023-04-28T03:36:12;10.40;99.90
8856;DHT22;4464;50.882;4.730;2023-04-28T03:38:40;10.40;99.90
8856;DHT22;4464;50.882;4.730;2023-04-28T03:41:06;10.30;99.90
8856;DHT22;4464;50.882;4.730;2023-04-28T03:43:32;10.40;99.90
8856;DHT22;4464;50.882;4.730;2023-04-28T03:46:03;10.40;99.90
8856;DHT22;4464;50.882;4.730;2023-04-28T03:48:29;10.50;99.90
8856;DHT22;4464;50.882;4.730;2023-04-28T03:50:55;10.50;99.90
8856;DHT22;4464;50.882;4.730;2023-04-28T03:53:20;10.50;99.90
8856;DHT22;4464;50.882;4.730;2023-04-28T03:55:50;10.40;99.90
8856;DHT22;4464;50.882;4.730;2023-04-28T03:58:16;10.40;99.90
8856;DHT22;4464;50.882;4.730;2023-04-28T04:00:42;10.40;99.90
8856;DHT22;4464;50.882;4.730;2023-04-28T04:03:08;10.40;99.90
8856;DHT22;4464;50.882;4.730;2023-04-28T04:05:36;10.50;99.90
8856;DHT22;4464;50.882;4.730;2023-04-28T04:08:06;10.60;99.90
8856;DHT22;4464;50.882;4.730;2023-04-28T04:10:31;10.60;99.90
8856;DHT22;4464;50.882;4.730;2023-04-28T04:13:00;10.70;99.90
8856;DHT22;4464;50.882;4.730;2023-04-28T04:15:25;10.60;99.90
8856;DHT22;4464;50.882;4.730;2023-04-28T04:17:53;10.60;99.90
8856;DHT22;4464;50.882;4.730;2023-04-28T04:20:19;10.60;99.90
8856;DHT22;4464;50.882;4.730;2023-04-28T04:22:45;10.40;99.90
8856;DHT22;4464;50.882;4.730;2023-04-28T04:25:10;10.50;99.90
8856;DHT22;4464;50.882;4.730;2023-04-28T04:27:38;10.60;99.90
8856;DHT22;4464;50.882;4.730;2023-04-28T04:30:04;10.60;99.90
8856;DHT22;4464;50.882;4.730;2023-04-28T04:32:32;10.50;99.90
8856;DHT22;4464;50.882;4.730;2023-04-28T04:34:58;10.50;99.90
8856;DHT22;4464;50.882;4.730;2023-04-28T04:37:24;10.60;99.90
8856;DHT22;4464;50.882;4.730;2023-04-28T04:39:49;10.60;99.90
8856;DHT22;4464;50.882;4.730;2023-04-28T04:42:15;10.50;99.90
8856;DHT22;4464;50.882;4.730;2023-04-28T04:44:43;10.60;99.90
8856;DHT22;4464;50.882;4.730;2023-04-28T04:47:11;10.60;99.90
8856;DHT22;4464;50.882;4.730;2023-04-28T04:49:36;10.60;99.90
8856;DHT22;4464;50.882;4.730;2023-04-28T04:52:04;10.70;99.90
8856;DHT22;4464;50.882;4.730;2023-04-28T04:54:34;10.90;99.90
8856;DHT22;4464;50.882;4.730;2023-04-28T04:57:00;10.80;99.90
8856;DHT22;4464;50.882;4.730;2023-04-28T04:59:28;10.80;99.90
8856;DHT22;4464;50.882;4.730;2023-04-28T05:01:56;10.90;99.90
8856;DHT22;4464;50.882;4.730;2023-04-28T05:04:24;10.80;99.90
8856;DHT22;4464;50.882;4.730;2023-04-28T05:06:49;10.90;99.90
8856;DHT22;4464;50.882;4.730;2023-04-28T05:09:15;11.00;99.90
8856;DHT22;4464;50.882;4.730;2023-04-28T05:11:41;11.10;99.90
8856;DHT22;4464;50.882;4.730;2023-04-28T05:14:07;11.10;99.90
8856;DHT22;4464;50.882;4.730;2023-04-28T05:16:37;11.10;99.90
8856;DHT22;4464;50.882;4.730;2023-04-28T05:19:05;11.10;99.90
8856;DHT22;4464;50.882;4.730;2023-04-28T05:21:33;11.10;99.90
8856;DHT22;4464;50.882;4.730;2023-04-28T05:23:59;11.20;99.90
8856;DHT22;4464;50.882;4.730;2023-04-28T05:26:27;11.10;99.90
8856;DHT22;4464;50.882;4.730;2023-04-28T05:28:53;11.10;99.90
8856;DHT22;4464;50.882;4.730;2023-04-28T05:31:19;11.20;99.90
8856;DHT22;4464;50.882;4.730;2023-04-28T05:33:44;11.20;99.90
8856;DHT22;4464;50.882;4.730;2023-04-28T05:36:10;11.30;99.90
8856;DHT22;4464;50.882;4.730;2023-04-28T05:38:38;11.40;99.90
8856;DHT22;4464;50.882;4.730;2023-04-28T05:41:07;11.50;99.90
8856;DHT22;4464;50.882;4.730;2023-04-28T05:43:34;11.50;99.90
8856;DHT22;4464;50.882;4.730;2023-04-28T05:46:00;11.50;99.90
8856;DHT22;4464;50.882;4.730;2023-04-28T05:48:29;11.60;99.90
8856;DHT22;4464;50.882;4.730;2023-04-28T05:50:57;11.60;99.90
8856;DHT22;4464;50.882;4.730;2023-04-28T05:53:23;11.70;99.90
8856;DHT22;4464;50.882;4.730;2023-04-28T05:55:48;11.80;99.90
8856;DHT22;4464;50.882;4.730;2023-04-28T05:58:14;11.90;99.90
8856;DHT22;4464;50.882;4.730;2023-04-28T06:00:40;12.00;99.90
8856;DHT22;4464;50.882;4.730;2023-04-28T06:03:05;12.10;99.90
8856;DHT22;4464;50.882;4.730;2023-04-28T06:05:35;12.10;99.90
8856;DHT22;4464;50.882;4.730;2023-04-28T06:08:03;12.10;99.90
8856;DHT22;4464;50.882;4.730;2023-04-28T06:10:29;12.00;99.90
8856;DHT22;4464;50.882;4.730;2023-04-28T06:12:55;12.00;99.90
8856;DHT22;4464;50.882;4.730;2023-04-28T06:15:20;12.00;99.90
8856;DHT22;4464;50.882;4.730;2023-04-28T06:17:47;12.00;99.90
8856;DHT22;4464;50.882;4.730;2023-04-28T06:20:12;12.00;99.90
8856;DHT22;4464;50.882;4.730;2023-04-28T06:22:39;11.90;99.90
8856;DHT22;4464;50.882;4.730;2023-04-28T06:25:05;11.90;99.90
8856;DHT22;4464;50.882;4.730;2023-04-28T06:27:31;11.90;99.90
8856;DHT22;4464;50.882;4.730;2023-04-28T06:29:58;11.90;99.90
8856;DHT22;4464;50.882;4.730;2023-04-28T06:32:26;11.80;99.90
8856;DHT22;4464;50.882;4.730;2023-04-28T06:34:51;12.00;99.90
8856;DHT22;4464;50.882;4.730;2023-04-28T06:37:17;11.90;99.90
8856;DHT22;4464;50.882;4.730;2023-04-28T06:39:43;12.00;99.90
8856;DHT22;4464;50.882;4.730;2023-04-28T06:42:11;12.10;99.90
8856;DHT22;4464;50.882;4.730;2023-04-28T06:44:37;12.20;99.90
8856;DHT22;4464;50.882;4.730;2023-04-28T06:47:03;12.30;99.90
8856;DHT22;4464;50.882;4.730;2023-04-28T06:49:31;12.50;99.90
8856;DHT22;4464;50.882;4.730;2023-04-28T06:51:56;12.50;99.90
8856;DHT22;4464;50.882;4.730;2023-04-28T06:54:24;12.50;99.90
8856;DHT22;4464;50.882;4.730;2023-04-28T06:56:52;12.60;99.90
8856;DHT22;4464;50.882;4.730;2023-04-28T06:59:18;12.60;99.90
8856;DHT22;4464;50.882;4.730;2023-04-28T07:01:43;12.70;99.90
8856;DHT22;4464;50.882;4.730;2023-04-28T07:04:12;12.60;99.90
8856;DHT22;4464;50.882;4.730;2023-04-28T07:06:37;12.60;99.90
8856;DHT22;4464;50.882;4.730;2023-04-28T07:09:03;12.70;99.90
8856;DHT22;4464;50.882;4.730;2023-04-28T07:11:29;12.90;99.90
8856;DHT22;4464;50.882;4.730;2023-04-28T07:13:59;13.00;99.90
8856;DHT22;4464;50.882;4.730;2023-04-28T07:16:25;13.10;99.90
8856;DHT22;4464;50.882;4.730;2023-04-28T07:18:53;13.10;99.90
8856;DHT22;4464;50.882;4.730;2023-04-28T07:21:21;13.20;99.90
8856;DHT22;4464;50.882;4.730;2023-04-28T07:23:47;13.30;99.90
8856;DHT22;4464;50.882;4.730;2023-04-28T07:26:13;13.30;99.90
8856;DHT22;4464;50.882;4.730;2023-04-28T07:28:42;13.40;99.90
8856;DHT22;4464;50.882;4.730;2023-04-28T07:31:08;13.60;99.90
8856;DHT22;4464;50.882;4.730;2023-04-28T07:33:36;13.60;99.90
8856;DHT22;4464;50.882;4.730;2023-04-28T07:36:01;13.70;99.90
8856;DHT22;4464;50.882;4.730;2023-04-28T07:38:27;13.80;99.90
8856;DHT22;4464;50.882;4.730;2023-04-28T07:40:53;13.80;99.90
8856;DHT22;4464;50.882;4.730;2023-04-28T07:43:21;13.90;99.90
8856;DHT22;4464;50.882;4.730;2023-04-28T07:45:47;13.90;99.90
8856;DHT22;4464;50.882;4.730;2023-04-28T07:48:15;13.90;99.90
8856;DHT22;4464;50.882;4.730;2023-04-28T07:50:43;14.00;99.90
8856;DHT22;4464;50.882;4.730;2023-04-28T07:53:08;14.10;99.90
8856;DHT22;4464;50.882;4.730;2023-04-28T07:55:36;14.10;99.90
8856;DHT22;4464;50.882;4.730;2023-04-28T07:58:06;14.10;99.90
8856;DHT22;4464;50.882;4.730;2023-04-28T08:00:32;14.10;99.90
8856;DHT22;4464;50.882;4.730;2023-04-28T08:03:00;14.10;99.90
8856;DHT22;4464;50.882;4.730;2023-04-28T08:05:26;14.20;99.90
8856;DHT22;4464;50.882;4.730;2023-04-28T08:07:56;14.40;99.90
8856;DHT22;4464;50.882;4.730;2023-04-28T08:10:23;14.50;99.90
8856;DHT22;4464;50.882;4.730;2023-04-28T08:12:51;14.60;99.90
8856;DHT22;4464;50.882;4.730;2023-04-28T08:15:17;14.70;99.90
8856;DHT22;4464;50.882;4.730;2023-04-28T08:17:43;14.90;99.90
8856;DHT22;4464;50.882;4.730;2023-04-28T08:20:11;15.10;99.90
8856;DHT22;4464;50.882;4.730;2023-04-28T08:22:40;15.40;99.90
8856;DHT22;4464;50.882;4.730;2023-04-28T08:25:06;15.80;99.90
8856;DHT22;4464;50.882;4.730;2023-04-28T08:27:32;15.90;99.90
8856;DHT22;4464;50.882;4.730;2023-04-28T08:30:00;16.10;99.90
8856;DHT22;4464;50.882;4.730;2023-04-28T08:32:26;16.00;99.90
8856;DHT22;4464;50.882;4.730;2023-04-28T08:34:52;16.00;99.90
8856;DHT22;4464;50.882;4.730;2023-04-28T08:37:18;15.80;99.90
8856;DHT22;4464;50.882;4.730;2023-04-28T08:39:44;15.80;99.90
8856;DHT22;4464;50.882;4.730;2023-04-28T08:42:12;15.80;99.90
8856;DHT22;4464;50.882;4.730;2023-04-28T08:44:39;15.90;99.90
8856;DHT22;4464;50.882;4.730;2023-04-28T08:47:12;15.90;99.90
8856;DHT22;4464;50.882;4.730;2023-04-28T08:49:39;16.00;99.90
8856;DHT22;4464;50.882;4.730;2023-04-28T08:52:16;15.90;99.90
8856;DHT22;4464;50.882;4.730;2023-04-28T08:54:43;16.00;99.90
8856;DHT22;4464;50.882;4.730;2023-04-28T08:57:09;16.10;99.90
8856;DHT22;4464;50.882;4.730;2023-04-28T08:59:39;16.20;99.90
8856;DHT22;4464;50.882;4.730;2023-04-28T09:02:07;16.40;99.90
8856;DHT22;4464;50.882;4.730;2023-04-28T09:04:33;16.40;99.90
8856;DHT22;4464;50.882;4.730;2023-04-28T09:07:01;16.50;99.90
8856;DHT22;4464;50.882;4.730;2023-04-28T09:09:28;16.60;99.90
8856;DHT22;4464;50.882;4.730;2023-04-28T09:12:01;16.70;99.90
8856;DHT22;4464;50.882;4.730;2023-04-28T09:14:28;16.70;99.90
8856;DHT22;4464;50.882;4.730;2023-04-28T09:16:54;16.60;99.90
8856;DHT22;4464;50.882;4.730;2023-04-28T09:19:20;16.50;99.90
8856;DHT22;4464;50.882;4.730;2023-04-28T09:21:54;16.60;99.90
8856;DHT22;4464;50.882;4.730;2023-04-28T09:26:59;16.60;99.90
8856;DHT22;4464;50.882;4.730;2023-04-28T09:29:27;16.50;99.90
8856;DHT22;4464;50.882;4.730;2023-04-28T09:31:55;16.50;99.90
8856;DHT22;4464;50.882;4.730;2023-04-28T09:37:16;16.30;99.90
8856;DHT22;4464;50.882;4.730;2023-04-28T09:39:44;16.30;99.90
8856;DHT22;4464;50.882;4.730;2023-04-28T09:42:10;16.40;99.90
8856;DHT22;4464;50.882;4.730;2023-04-28T09:44:38;16.40;99.90
8856;DHT22;4464;50.882;4.730;2023-04-28T09:47:19;16.70;99.90
8856;DHT22;4464;50.882;4.730;2023-04-28T09:49:56;16.90;99.90
8856;DHT22;4464;50.882;4.730;2023-04-28T09:52:26;17.10;99.90
8856;DHT22;4464;50.882;4.730;2023-04-28T09:54:53;17.10;99.90
8856;DHT22;4464;50.882;4.730;2023-04-28T09:57:22;17.30;99.90
8856;DHT22;4464;50.882;4.730;2023-04-28T09:59:49;17.60;99.90
8856;DHT22;4464;50.882;4.730;2023-04-28T10:02:17;17.70;99.90
8856;DHT22;4464;50.882;4.730;2023-04-28T10:04:49;18.00;99.90
8856;DHT22;4464;50.882;4.730;2023-04-28T10:07:18;18.20;99.90
8856;DHT22;4464;50.882;4.730;2023-04-28T10:09:46;18.30;99.90
8856;DHT22;4464;50.882;4.730;2023-04-28T10:12:17;18.90;99.90
8856;DHT22;4464;50.882;4.730;2023-04-28T10:14:47;18.90;99.90
8856;DHT22;4464;50.882;4.730;2023-04-28T10:17:20;18.60;99.90
8856;DHT22;4464;50.882;4.730;2023-04-28T10:19:52;18.10;99.90
8856;DHT22;4464;50.882;4.730;2023-04-28T10:27:38;18.00;99.90
8856;DHT22;4464;50.882;4.730;2023-04-28T10:32:43;18.20;99.90
8856;DHT22;4464;50.882;4.730;2023-04-28T10:43:02;18.30;99.90
8856;DHT22;4464;50.882;4.730;2023-04-28T10:48:14;18.50;99.90
8856;DHT22;4464;50.882;4.730;2023-04-28T10:56:22;18.00;99.90
8856;DHT22;4464;50.882;4.730;2023-04-28T10:58:55;17.90;99.90
8856;DHT22;4464;50.882;4.730;2023-04-28T11:03:55;18.10;99.90
8856;DHT22;4464;50.882;4.730;2023-04-28T11:06:38;18.40;99.90
8856;DHT22;4464;50.882;4.730;2023-04-28T11:16:58;18.70;99.90
8856;DHT22;4464;50.882;4.730;2023-04-28T11:19:31;18.50;99.90
8856;DHT22;4464;50.882;4.730;2023-04-28T11:21:59;18.50;99.90
8856;DHT22;4464;50.882;4.730;2023-04-28T11:24:28;18.40;99.90
8856;DHT22;4464;50.882;4.730;2023-04-28T11:26:55;18.30;99.90
8856;DHT22;4464;50.882;4.730;2023-04-28T11:32:00;18.60;99.90
8856;DHT22;4464;50.882;4.730;2023-04-28T11:34:28;18.90;99.90
8856;DHT22;4464;50.882;4.730;2023-04-28T11:36:56;18.90;99.90
8856;DHT22;4464;50.882;4.730;2023-04-28T11:39:32;18.90;99.90
8856;DHT22;4464;50.882;4.730;2023-04-28T11:42:01;19.60;99.90
8856;DHT22;4464;50.882;4.730;2023-04-28T11:44:30;19.50;99.90
8856;DHT22;4464;50.882;4.730;2023-04-28T11:46:58;19.40;99.90
8856;DHT22;4464;50.882;4.730;2023-04-28T11:52:03;18.70;99.90
8856;DHT22;4464;50.882;4.730;2023-04-28T11:54:32;18.20;99.90
8856;DHT22;4464;50.882;4.730;2023-04-28T11:57:02;18.00;99.90
8856;DHT22;4464;50.882;4.730;2023-04-28T11:59:35;17.90;99.90
8856;DHT22;4464;50.882;4.730;2023-04-28T12:02:06;17.80;99.90
8856;DHT22;4464;50.882;4.730;2023-04-28T12:04:37;17.80;99.90
8856;DHT22;4464;50.882;4.730;2023-04-28T12:12:31;17.60;99.90
8856;DHT22;4464;50.882;4.730;2023-04-28T12:14:59;17.40;99.90
8856;DHT22;4464;50.882;4.730;2023-04-28T12:17:39;17.30;99.90
8856;DHT22;4464;50.882;4.730;2023-04-28T12:20:32;17.00;99.90
8856;DHT22;4464;50.882;4.730;2023-04-28T12:22:59;17.00;99.90
8856;DHT22;4464;50.882;4.730;2023-04-28T12:25:25;16.90;99.90
8856;DHT22;4464;50.882;4.730;2023-04-28T12:28:05;16.80;99.90
8856;DHT22;4464;50.882;4.730;2023-04-28T12:30:35;16.80;99.90
8856;DHT22;4464;50.882;4.730;2023-04-28T12:33:24;16.80;99.90
8856;DHT22;4464;50.882;4.730;2023-04-28T12:35:52;16.80;99.90
8856;DHT22;4464;50.882;4.730;2023-04-28T12:38:25;17.00;99.90
8856;DHT22;4464;50.882;4.730;2023-04-28T12:40:51;17.40;99.90
8856;DHT22;4464;50.882;4.730;2023-04-28T12:43:17;17.70;99.90
8856;DHT22;4464;50.882;4.730;2023-04-28T12:45:45;17.40;99.90
8856;DHT22;4464;50.882;4.730;2023-04-28T12:48:11;17.10;99.90
8856;DHT22;4464;50.882;4.730;2023-04-28T12:50:36;17.00;99.90
8856;DHT22;4464;50.882;4.730;2023-04-28T12:53:04;16.90;99.90
8856;DHT22;4464;50.882;4.730;2023-04-28T12:55:30;17.00;99.90
8856;DHT22;4464;50.882;4.730;2023-04-28T12:57:56;17.00;99.90
8856;DHT22;4464;50.882;4.730;2023-04-28T13:00:22;17.20;99.90
8856;DHT22;4464;50.882;4.730;2023-04-28T13:02:49;17.00;99.90
8856;DHT22;4464;50.882;4.730;2023-04-28T13:05:15;17.00;99.90
8856;DHT22;4464;50.882;4.730;2023-04-28T13:07:44;17.10;99.90
8856;DHT22;4464;50.882;4.730;2023-04-28T13:10:16;17.10;99.90
8856;DHT22;4464;50.882;4.730;2023-04-28T13:12:47;17.20;99.90
8856;DHT22;4464;50.882;4.730;2023-04-28T13:15:13;17.10;99.90
8856;DHT22;4464;50.882;4.730;2023-04-28T13:17:41;17.10;99.90
8856;DHT22;4464;50.882;4.730;2023-04-28T13:20:08;17.20;99.90
8856;DHT22;4464;50.882;4.730;2023-04-28T13:22:33;16.80;99.90
8856;DHT22;4464;50.882;4.730;2023-04-28T13:24:59;16.70;99.90
8856;DHT22;4464;50.882;4.730;2023-04-28T13:27:25;16.50;99.90
8856;DHT22;4464;50.882;4.730;2023-04-28T13:29:53;16.60;99.90
8856;DHT22;4464;50.882;4.730;2023-04-28T13:32:23;16.50;99.90
8856;DHT22;4464;50.882;4.730;2023-04-28T13:34:49;16.40;99.90
8856;DHT22;4464;50.882;4.730;2023-04-28T13:37:14;16.50;99.90
8856;DHT22;4464;50.882;4.730;2023-04-28T13:39:40;16.30;99.90
8856;DHT22;4464;50.882;4.730;2023-04-28T13:42:06;16.30;99.90
8856;DHT22;4464;50.882;4.730;2023-04-28T13:44:32;16.40;99.90
8856;DHT22;4464;50.882;4.730;2023-04-28T13:46:59;16.40;99.90
8856;DHT22;4464;50.882;4.730;2023-04-28T13:49:32;16.40;99.90
8856;DHT22;4464;50.882;4.730;2023-04-28T13:51:58;16.40;99.90
8856;DHT22;4464;50.882;4.730;2023-04-28T13:54:24;16.30;99.90
8856;DHT22;4464;50.882;4.730;2023-04-28T13:56:49;16.30;99.90
8856;DHT22;4464;50.882;4.730;2023-04-28T13:59:15;16.30;99.90
8856;DHT22;4464;50.882;4.730;2023-04-28T14:01:43;16.30;99.90
8856;DHT22;4464;50.882;4.730;2023-04-28T14:04:11;16.30;99.90
8856;DHT22;4464;50.882;4.730;2023-04-28T14:06:37;16.40;99.90
8856;DHT22;4464;50.882;4.730;2023-04-28T14:09:03;16.30;99.90
8856;DHT22;4464;50.882;4.730;2023-04-28T14:11:30;16.30;99.90
8856;DHT22;4464;50.882;4.730;2023-04-28T14:13:56;16.30;99.90
8856;DHT22;4464;50.882;4.730;2023-04-28T14:16:22;16.50;99.90
8856;DHT22;4464;50.882;4.730;2023-04-28T14:18:47;16.30;99.90
8856;DHT22;4464;50.882;4.730;2023-04-28T14:21:15;16.20;99.90
8856;DHT22;4464;50.882;4.730;2023-04-28T14:23:41;16.10;99.90
8856;DHT22;4464;50.882;4.730;2023-04-28T14:26:10;16.10;99.90
8856;DHT22;4464;50.882;4.730;2023-04-28T14:28:36;16.00;99.90
8856;DHT22;4464;50.882;4.730;2023-04-28T14:31:03;16.10;99.90
8856;DHT22;4464;50.882;4.730;2023-04-28T14:33:31;16.10;99.90
8856;DHT22;4464;50.882;4.730;2023-04-28T14:35:59;16.20;99.90
8856;DHT22;4464;50.882;4.730;2023-04-28T14:38:26;16.30;99.90
8856;DHT22;4464;50.882;4.730;2023-04-28T14:40:53;16.30;99.90
8856;DHT22;4464;50.882;4.730;2023-04-28T14:43:18;16.40;99.90
8856;DHT22;4464;50.882;4.730;2023-04-28T14:45:46;16.30;99.90
8856;DHT22;4464;50.882;4.730;2023-04-28T14:48:12;16.30;99.90
8856;DHT22;4464;50.882;4.730;2023-04-28T14:50:39;16.30;99.90
8856;DHT22;4464;50.882;4.730;2023-04-28T14:53:05;16.20;99.90
8856;DHT22;4464;50.882;4.730;2023-04-28T14:55:34;16.20;99.90
8856;DHT22;4464;50.882;4.730;2023-04-28T14:58:02;16.20;99.90
8856;DHT22;4464;50.882;4.730;2023-04-28T15:00:28;16.20;99.90
8856;DHT22;4464;50.882;4.730;2023-04-28T15:02:55;16.20;99.90
8856;DHT22;4464;50.882;4.730;2023-04-28T15:05:20;16.30;99.90
8856;DHT22;4464;50.882;4.730;2023-04-28T15:07:49;16.30;99.90
8856;DHT22;4464;50.882;4.730;2023-04-28T15:10:14;16.40;99.90
8856;DHT22;4464;50.882;4.730;2023-04-28T15:12:43;16.40;99.90
8856;DHT22;4464;50.882;4.730;2023-04-28T15:15:09;16.50;99.90
8856;DHT22;4464;50.882;4.730;2023-04-28T15:17:34;16.50;99.90
8856;DHT22;4464;50.882;4.730;2023-04-28T15:20:04;16.70;99.90
8856;DHT22;4464;50.882;4.730;2023-04-28T15:22:34;16.80;99.90
8856;DHT22;4464;50.882;4.730;2023-04-28T15:25:01;17.10;99.90
8856;DHT22;4464;50.882;4.730;2023-04-28T15:27:28;17.20;99.90
8856;DHT22;4464;50.882;4.730;2023-04-28T15:29:54;17.30;99.90
8856;DHT22;4464;50.882;4.730;2023-04-28T15:32:20;17.50;99.90
8856;DHT22;4464;50.882;4.730;2023-04-28T15:34:48;17.50;99.90
8856;DHT22;4464;50.882;4.730;2023-04-28T15:40:06;17.50;99.90
8856;DHT22;4464;50.882;4.730;2023-04-28T15:42:31;17.40;99.90
8856;DHT22;4464;50.882;4.730;2023-04-28T15:44:58;17.50;99.90
8856;DHT22;4464;50.882;4.730;2023-04-28T15:47:23;17.30;99.90
8856;DHT22;4464;50.882;4.730;2023-04-28T15:49:52;17.10;99.90
8856;DHT22;4464;50.882;4.730;2023-04-28T15:52:17;17.10;99.90
8856;DHT22;4464;50.882;4.730;2023-04-28T15:54:43;17.00;99.90
8856;DHT22;4464;50.882;4.730;2023-04-28T15:57:09;17.00;99.90
8856;DHT22;4464;50.882;4.730;2023-04-28T15:59:37;17.10;99.90
8856;DHT22;4464;50.882;4.730;2023-04-28T16:02:03;17.00;99.90
8856;DHT22;4464;50.882;4.730;2023-04-28T16:04:28;17.00;99.90
8856;DHT22;4464;50.882;4.730;2023-04-28T16:06:56;16.90;99.90
8856;DHT22;4464;50.882;4.730;2023-04-28T16:09:23;17.00;99.90
8856;DHT22;4464;50.882;4.730;2023-04-28T16:11:50;17.00;99.90
8856;DHT22;4464;50.882;4.730;2023-04-28T16:14:16;17.00;99.90
8856;DHT22;4464;50.882;4.730;2023-04-28T16:16:42;17.00;99.90
8856;DHT22;4464;50.882;4.730;2023-04-28T16:19:08;16.90;99.90
8856;DHT22;4464;50.882;4.730;2023-04-28T16:21:34;16.80;99.90
8856;DHT22;4464;50.882;4.730;2023-04-28T16:24:02;16.70;99.90
8856;DHT22;4464;50.882;4.730;2023-04-28T16:26:30;16.70;99.90
8856;DHT22;4464;50.882;4.730;2023-04-28T16:28:56;16.70;99.90
8856;DHT22;4464;50.882;4.730;2023-04-28T16:31:24;16.60;99.90
8856;DHT22;4464;50.882;4.730;2023-04-28T16:33:50;16.60;99.90
8856;DHT22;4464;50.882;4.730;2023-04-28T16:36:17;16.50;99.90
8856;DHT22;4464;50.882;4.730;2023-04-28T16:38:45;16.50;99.90
8856;DHT22;4464;50.882;4.730;2023-04-28T16:41:11;16.50;99.90
8856;DHT22;4464;50.882;4.730;2023-04-28T16:43:36;16.30;99.90
8856;DHT22;4464;50.882;4.730;2023-04-28T16:46:05;16.20;99.90
8856;DHT22;4464;50.882;4.730;2023-04-28T16:48:31;16.00;99.90
8856;DHT22;4464;50.882;4.730;2023-04-28T16:50:59;16.00;99.90
8856;DHT22;4464;50.882;4.730;2023-04-28T16:53:25;15.90;99.90
8856;DHT22;4464;50.882;4.730;2023-04-28T16:55:53;15.90;99.90